KMQE

East Milton Airport

Massachusetts, USA
METAR KMQE 172056Z AUTO VRB06KT 01/M09 A3028 RMK AO1 SLP272 T00061094 56008
Observed Flight Rules
Feb-17 @ 20:56 UTC (39 minutes ago)
Wind
Variable at 6 knots
Temperatures Readings
Current 1°C / 34°F
Dewpoint -9°C / 16°F
Humidity 48%
Altimeter 30.28" Hg
Pressure 1027.2 hPa
Elevation 199
METAR KMQE 172056Z AUTO VRB06KT 01/M09 A3028 RMK AO1 SLP272 T00061094 56008
Observed Flight Rules
Feb-17 @ 20:56 UTC
(39 minutes ago)
Wind
Variable at 6 knots
Temperature Dewpoint
1°C / 34°F -9°C / 16°F
Humidity Altimeter Pressure
48% 30.28" Hg 1027.2 hPa